Time;durP1;ratioP1;P1;durP2;ratioP2;P2;SDS_P1;SDS_P2;PMS_P1;PMS_P2;Temp;Humidity;BMP_temperature;BMP_pressure;BME280_temperature;BME280_humidity;BME280_pressure;Samples;Min_cycle;Max_cycle;Signal;HPM_P1;HPM_P2
2021/12/21 00:02:16;;;;;;;3.53;2.40;;;;;;;0.30;100.00;60842.81;5071802;28;20449;-75
2021/12/21 00:04:44;;;;;;;6.00;2.63;;;;;;;0.34;100.00;60844.00;5071443;28;20840;-75
2021/12/21 00:07:22;;;;;;;5.17;2.43;;;;;;;0.23;100.00;60835.38;5071287;28;20446;-75
2021/12/21 00:09:50;;;;;;;3.73;2.60;;;;;;;0.31;100.00;60843.84;5072287;28;20453;-75
2021/12/21 00:12:19;;;;;;;6.70;3.10;;;;;;;-0.59;100.00;60753.53;5071892;28;20454;-75
2021/12/21 00:14:58;;;;;;;4.87;2.73;;;;;;;0.28;100.00;60840.69;5071333;28;20438;-74
2021/12/21 00:20:27;;;;;;;4.93;2.60;;;;;;;0.38;100.00;60846.28;5067610;28;20831;-75
2021/12/21 00:23:27;;;;;;;5.07;2.93;;;;;;;0.35;100.00;60843.09;5071286;28;20485;-74
2021/12/21 00:25:52;;;;;;;4.47;2.93;;;;;;;-0.67;100.00;60735.06;5073865;28;20934;-74
2021/12/21 00:28:19;;;;;;;4.73;2.80;;;;;;;-0.28;100.00;60781.34;5071108;28;20454;-74
2021/12/21 00:30:46;;;;;;;4.27;2.53;;;;;;;0.50;100.00;60859.00;5071226;28;20908;-74
2021/12/21 00:33:17;;;;;;;5.23;2.80;;;;;;;0.44;100.00;60857.66;5071084;28;20504;-73
2021/12/21 00:35:46;;;;;;;4.17;2.60;;;;;;;0.39;100.00;60852.34;5071262;28;20434;-74
2021/12/21 00:38:19;;;;;;;7.60;3.00;;;;;;;-1.00;100.00;60706.19;5075061;28;20887;-76
2021/12/21 00:40:47;;;;;;;5.73;2.90;;;;;;;-1.54;100.00;60646.56;5074964;28;20454;-75
2021/12/21 00:43:15;;;;;;;6.20;2.93;;;;;;;0.32;100.00;60839.38;5074967;28;20442;-75
2021/12/21 00:45:43;;;;;;;6.10;2.80;;;;;;;-0.54;100.00;60749.34;5074637;28;20492;-74
2021/12/21 00:48:11;;;;;;;7.23;3.00;;;;;;;0.33;100.00;60845.97;5074958;28;20442;-74
2021/12/21 00:50:44;;;;;;;3.80;2.57;;;;;;;0.33;100.00;60842.94;5073580;28;20448;-74
2021/12/21 00:53:12;;;;;;;2.73;2.23;;;;;;;0.09;100.00;60815.53;5074797;28;20957;-75
2021/12/21 00:55:40;;;;;;;3.57;2.70;;;;;;;0.38;100.00;60848.78;5074565;28;20454;-75
2021/12/21 00:58:09;;;;;;;5.57;2.87;;;;;;;0.28;100.00;60837.66;5074581;28;20457;-74
2021/12/21 01:00:38;;;;;;;4.13;2.73;;;;;;;-0.90;100.00;60721.75;5074629;28;20442;-75
2021/12/21 01:03:09;;;;;;;4.57;2.40;;;;;;;-0.96;100.00;60710.41;5074485;28;20520;-75
2021/12/21 01:05:46;;;;;;;5.97;3.03;;;;;;;0.16;100.00;60824.94;5074517;28;20482;-76
2021/12/21 01:08:40;;;;;;;4.60;3.00;;;;;;;0.29;100.00;60836.19;5074341;28;20979;-77
2021/12/21 01:11:14;;;;;;;3.33;2.40;;;;;;;-1.15;100.00;60687.81;5074354;28;20922;-74
2021/12/21 01:13:59;;;;;;;4.37;2.80;;;;;;;0.10;100.00;60816.59;5074503;28;20949;-77
2021/12/21 01:16:35;;;;;;;4.33;3.03;;;;;;;0.21;100.00;60832.72;5074298;28;20900;-75
2021/12/21 01:19:10;;;;;;;5.37;2.90;;;;;;;-0.04;100.00;60807.28;5072893;28;20540;-74
2021/12/21 01:21:44;;;;;;;5.07;3.07;;;;;;;0.18;100.00;60820.06;5074274;28;20883;-74
2021/12/21 01:29:54;;;;;;;4.20;2.70;;;;;;;-1.03;100.00;60703.03;5070363;28;21000;-75
2021/12/21 01:32:33;;;;;;;5.10;3.23;;;;;;;-0.72;100.00;60732.28;5073903;28;20478;-76
2021/12/21 01:35:05;;;;;;;4.70;2.97;;;;;;;-1.07;100.00;60698.78;5074646;28;20530;-73
2021/12/21 01:37:45;;;;;;;5.97;3.07;;;;;;;-0.04;100.00;60801.78;5073623;28;20462;-74
2021/12/21 01:40:25;;;;;;;8.33;2.90;;;;;;;0.17;100.00;60823.47;5073868;28;20450;-77
2021/12/21 01:43:09;;;;;;;4.63;3.10;;;;;;;0.16;100.00;60825.47;5073933;28;20442;-74
2021/12/21 01:51:07;;;;;;;6.20;2.90;;;;;;;-0.98;100.00;60707.75;5073682;28;20746;-74
2021/12/21 01:53:35;;;;;;;5.77;3.13;;;;;;;0.03;100.00;60813.66;5073369;28;20931;-74
2021/12/21 01:56:06;;;;;;;4.23;2.60;;;;;;;0.10;100.00;60821.63;5073081;28;20520;-73
2021/12/21 01:58:37;;;;;;;3.83;2.70;;;;;;;0.07;100.00;60817.88;5072072;28;20844;-74
2021/12/21 02:01:07;;;;;;;5.07;3.00;;;;;;;-1.40;100.00;60661.38;5073409;28;20976;-74
2021/12/21 02:03:34;;;;;;;3.87;3.07;;;;;;;0.00;100.00;60811.03;5067637;28;20509;-72
2021/12/21 02:06:01;;;;;;;3.77;2.93;;;;;;;-0.04;100.00;60804.28;5071076;28;21008;-75
2021/12/21 02:08:32;;;;;;;5.50;3.50;;;;;;;-0.04;100.00;60806.78;5073031;28;20443;-75
2021/12/21 02:11:04;;;;;;;3.50;2.63;;;;;;;-0.15;100.00;60795.13;5072894;28;20450;-75
2021/12/21 02:13:37;;;;;;;4.50;2.97;;;;;;;-0.13;100.00;60797.25;5073635;28;20438;-74
2021/12/21 02:16:07;;;;;;;4.53;3.00;;;;;;;-0.09;100.00;60796.47;5073522;28;20451;-74
2021/12/21 02:18:49;;;;;;;3.33;2.07;;;;;;;-0.59;100.00;60746.03;5072950;28;20451;-76
2021/12/21 02:21:25;;;;;;;3.50;2.90;;;;;;;-0.12;100.00;60795.81;5073032;28;20450;-75
2021/12/21 02:23:59;;;;;;;4.23;2.80;;;;;;;-0.18;100.00;60792.47;5072448;28;20548;-74
2021/12/21 02:29:25;;;;;;;4.70;2.97;;;;;;;-0.20;100.00;60785.34;5048301;28;20449;-74
2021/12/21 02:31:58;;;;;;;4.73;2.60;;;;;;;-0.20;100.00;60789.84;5073976;28;20453;-74
2021/12/21 02:34:26;;;;;;;6.57;2.87;;;;;;;-0.18;100.00;60786.94;5076418;28;20435;-73
2021/12/21 02:36:58;;;;;;;4.00;2.87;;;;;;;-1.22;100.00;60677.91;5072758;28;20462;-74
2021/12/21 02:39:28;;;;;;;3.47;2.60;;;;;;;-0.33;100.00;60776.59;5073016;28;20891;-75
2021/12/21 02:41:58;;;;;;;4.40;2.80;;;;;;;-0.27;100.00;60782.94;5072565;28;20508;-74
2021/12/21 02:44:25;;;;;;;4.10;2.53;;;;;;;-0.24;100.00;60783.09;5066691;28;20838;-75
2021/12/21 02:46:54;;;;;;;4.07;2.40;;;;;;;-0.29;100.00;60780.81;5072589;28;20482;-73
2021/12/21 02:49:21;;;;;;;2.80;1.87;;;;;;;-1.36;100.00;60660.59;5072665;28;20492;-73
2021/12/21 02:51:50;;;;;;;3.87;2.10;;;;;;;-0.27;100.00;60777.41;5072302;28;20450;-74
2021/12/21 02:54:21;;;;;;;4.33;2.57;;;;;;;-0.21;100.00;60791.25;5071167;28;20445;-73
2021/12/21 02:56:50;;;;;;;4.57;2.07;;;;;;;-0.28;100.00;60776.34;5072351;28;20454;-73
2021/12/21 02:59:19;;;;;;;3.93;2.47;;;;;;;-0.25;100.00;60779.53;5072067;28;20586;-74
2021/12/21 03:01:46;;;;;;;3.93;2.00;;;;;;;-0.31;100.00;60773.69;5072435;28;20434;-76
2021/12/21 03:04:14;;;;;;;3.13;1.77;;;;;;;-1.23;100.00;60684.34;5072487;28;20450;-73
2021/12/21 03:09:43;;;;;;;3.63;1.93;;;;;;;-0.28;100.00;60781.34;5072115;28;20778;-75
2021/12/21 03:12:32;;;;;;;3.47;2.00;;;;;;;-0.35;100.00;60771.44;5071743;28;20434;-74
2021/12/21 03:15:01;;;;;;;3.23;2.03;;;;;;;-0.38;100.00;60768.25;5072102;28;20478;-73
2021/12/21 03:17:28;;;;;;;4.77;2.30;;;;;;;-1.68;100.00;60633.72;5071954;28;20442;-75
2021/12/21 03:20:01;;;;;;;2.50;1.93;;;;;;;-1.83;100.00;60613.41;5070416;28;20976;-74
2021/12/21 03:22:29;;;;;;;4.80;2.40;;;;;;;-0.44;100.00;60761.91;5072385;28;20959;-75
2021/12/21 03:25:01;;;;;;;2.30;2.00;;;;;;;-0.39;100.00;60769.69;5071783;28;20456;-76
2021/12/21 03:27:30;;;;;;;3.70;2.17;;;;;;;-0.32;100.00;60777.13;5071562;28;20498;-75
2021/12/21 03:30:04;;;;;;;2.93;1.93;;;;;;;-1.58;100.00;60639.81;5070495;28;20502;-76
2021/12/21 03:32:33;;;;;;;6.50;2.17;;;;;;;-0.45;100.00;60760.84;5071897;28;20438;-74
2021/12/21 03:35:00;;;;;;;2.63;2.13;;;;;;;-1.22;100.00;60677.38;5071770;28;20484;-76
2021/12/21 03:37:29;;;;;;;3.97;2.27;;;;;;;-0.76;100.00;60731.06;5071715;28;20516;-75
2021/12/21 03:40:02;;;;;;;3.17;2.10;;;;;;;-0.30;100.00;60774.25;5071562;28;21064;-75
2021/12/21 03:42:29;;;;;;;8.57;2.20;;;;;;;-1.63;100.00;60644.53;5071289;28;20844;-73
2021/12/21 03:44:58;;;;;;;4.37;2.53;;;;;;;-0.27;100.00;60782.41;5071517;28;20443;-75
2021/12/21 03:47:28;;;;;;;4.97;2.23;;;;;;;-1.26;100.00;60683.66;5070543;28;20517;-75
2021/12/21 03:49:59;;;;;;;4.63;2.93;;;;;;;-1.27;100.00;60672.09;5071599;28;21028;-74
2021/12/21 03:52:27;;;;;;;3.20;2.33;;;;;;;-0.29;100.00;60778.31;5071838;28;20454;-73
2021/12/21 03:54:57;;;;;;;3.63;2.30;;;;;;;-1.85;100.00;60618.78;5071644;28;20476;-75
2021/12/21 03:57:27;;;;;;;3.97;2.43;;;;;;;-0.46;100.00;60762.28;5071422;28;20462;-76
2021/12/21 03:59:55;;;;;;;5.37;2.27;;;;;;;-1.18;100.00;60687.13;5071813;28;20441;-75
2021/12/21 04:02:25;;;;;;;3.00;2.50;;;;;;;-0.05;100.00;60803.22;5071540;28;20438;-76
2021/12/21 04:04:57;;;;;;;4.20;2.20;;;;;;;-1.75;100.00;60626.84;5071479;28;20957;-76
2021/12/21 04:07:25;;;;;;;3.90;2.70;;;;;;;-1.26;100.00;60673.69;5071616;28;20485;-74
2021/12/21 04:09:53;;;;;;;3.90;2.20;;;;;;;-0.40;100.00;60769.16;5069988;28;20453;-75
2021/12/21 04:12:20;;;;;;;4.40;2.70;;;;;;;-0.16;100.00;60794.06;5074283;28;20438;-74
2021/12/21 04:14:52;;;;;;;3.40;2.30;;;;;;;-1.42;100.00;60659.25;5075715;28;20445;-76
2021/12/21 04:17:23;;;;;;;3.77;2.33;;;;;;;-0.04;100.00;60796.78;5075797;28;20523;-76
2021/12/21 04:19:51;;;;;;;2.73;2.20;;;;;;;-0.06;100.00;60802.69;5075412;28;20439;-75
2021/12/21 04:22:21;;;;;;;4.17;2.40;;;;;;;-0.01;100.00;60805.47;5075278;28;20933;-77
2021/12/21 04:24:52;;;;;;;4.23;2.17;;;;;;;-0.02;100.00;60808.91;5075325;28;20823;-73
2021/12/21 04:27:22;;;;;;;3.10;2.30;;;;;;;-0.06;100.00;60800.16;5075489;28;20489;-74
2021/12/21 04:29:52;;;;;;;3.13;2.30;;;;;;;-0.66;100.00;60741.13;5074932;28;20897;-74
2021/12/21 04:32:19;;;;;;;3.83;2.40;;;;;;;-0.07;100.00;60798.59;5075356;28;20454;-75
2021/12/21 04:34:46;;;;;;;3.50;2.10;;;;;;;-0.12;100.00;60795.81;5074408;28;20462;-74
2021/12/21 04:37:16;;;;;;;2.43;2.23;;;;;;;-1.00;100.00;60701.19;5074746;28;21018;-75
2021/12/21 04:39:48;;;;;;;6.53;2.60;;;;;;;-0.16;100.00;60794.06;5075279;28;20537;-74
2021/12/21 04:42:16;;;;;;;3.50;2.30;;;;;;;-1.40;100.00;60663.88;5082832;28;20964;-75
2021/12/21 04:44:48;;;;;;;5.00;2.60;;;;;;;-0.23;100.00;60787.19;5075001;28;20788;-76
2021/12/21 04:47:19;;;;;;;3.53;2.23;;;;;;;-0.29;100.00;60775.81;5074254;28;20896;-73
2021/12/21 04:49:47;;;;;;;2.53;1.87;;;;;;;-0.33;100.00;60776.06;5075160;28;20442;-74
2021/12/21 04:55:21;;;;;;;3.73;2.07;;;;;;;-0.40;100.00;60769.16;5074967;28;20445;-75
2021/12/21 04:57:48;;;;;;;5.83;2.43;;;;;;;-1.49;100.00;60654.34;5074583;28;20512;-75
2021/12/21 05:00:16;;;;;;;4.07;2.30;;;;;;;-0.43;100.00;60760.47;5074666;28;20431;-74
2021/12/21 05:02:48;;;;;;;7.57;2.40;;;;;;;-0.47;100.00;60756.22;5074664;28;20442;-73
2021/12/21 05:05:15;;;;;;;4.53;2.67;;;;;;;-0.48;100.00;60762.69;5074625;28;20442;-75
2021/12/21 05:07:49;;;;;;;5.33;2.67;;;;;;;-0.41;100.00;60768.13;5073265;28;21004;-75
2021/12/21 05:10:18;;;;;;;3.40;2.27;;;;;;;-0.53;100.00;60757.38;5074218;28;20830;-76
2021/12/21 05:12:45;;;;;;;5.40;2.20;;;;;;;-2.36;100.00;60557.38;5074403;28;20439;-75
2021/12/21 05:15:13;;;;;;;4.70;2.27;;;;;;;-0.65;100.00;60742.16;5074197;28;20952;-75
2021/12/21 05:17:40;;;;;;;6.37;2.00;;;;;;;-0.56;100.00;60752.22;5074626;28;20529;-74
2021/12/21 05:20:11;;;;;;;6.03;2.37;;;;;;;-2.14;100.00;60590.59;5073961;28;20443;-75
2021/12/21 05:22:47;;;;;;;2.83;1.90;;;;;;;-0.56;100.00;60751.72;5072255;28;20447;-76
2021/12/21 05:25:15;;;;;;;5.23;2.47;;;;;;;-0.76;100.00;60730.53;5074578;28;20454;-78
2021/12/21 05:27:42;;;;;;;3.90;2.33;;;;;;;-0.55;100.00;60752.75;5074314;28;20576;-76
2021/12/21 05:30:11;;;;;;;6.17;3.00;;;;;;;-0.56;100.00;60746.72;5072979;28;20565;-75
2021/12/21 05:32:39;;;;;;;3.70;2.20;;;;;;;-0.49;100.00;60752.16;5073861;28;20450;-74
2021/12/21 05:35:07;;;;;;;4.57;2.33;;;;;;;-0.58;100.00;60750.09;5073928;28;20451;-74
2021/12/21 05:37:37;;;;;;;3.87;1.97;;;;;;;-0.56;100.00;60751.72;5073656;28;20471;-74
2021/12/21 05:40:11;;;;;;;3.80;2.37;;;;;;;-1.70;100.00;60627.13;5070269;28;20534;-76
2021/12/21 05:42:38;;;;;;;3.20;1.80;;;;;;;-0.84;100.00;60717.59;5052108;28;20518;-76
2021/12/21 05:45:10;;;;;;;3.77;2.10;;;;;;;-1.02;100.00;60701.56;5055137;28;20517;-76
2021/12/21 05:47:38;;;;;;;3.03;2.03;;;;;;;-1.58;100.00;60644.81;5067179;28;20543;-75
2021/12/21 05:50:08;;;;;;;3.57;1.90;;;;;;;-0.49;100.00;60757.16;5053294;28;20448;-75
2021/12/21 05:52:37;;;;;;;2.57;1.87;;;;;;;-0.06;100.00;60799.66;5052410;28;20487;-77
2021/12/21 05:55:05;;;;;;;7.67;2.20;;;;;;;0.06;100.00;60812.38;5066573;28;20446;-77
2021/12/21 05:57:32;;;;;;;3.47;1.70;;;;;;;-0.01;100.00;60812.44;5073658;28;20958;-76
2021/12/21 06:00:06;;;;;;;5.73;1.90;;;;;;;-0.41;100.00;60768.13;5072271;28;20470;-78
2021/12/21 06:02:34;;;;;;;2.78;1.90;;;;;;;-1.26;100.00;60683.66;5065074;28;20828;-75
2021/12/21 06:05:06;;;;;;;3.10;2.10;;;;;;;-0.26;100.00;60783.47;5073550;28;20379;-76
2021/12/21 06:07:34;;;;;;;3.20;2.00;;;;;;;-1.93;100.00;60607.81;5071692;28;20535;-74
2021/12/21 06:10:18;;;;;;;4.53;2.37;;;;;;;-0.34;100.00;60770.00;5071721;28;20439;-75
2021/12/21 06:13:12;;;;;;;4.03;2.30;;;;;;;-0.30;100.00;60779.25;5072274;28;20952;-75
2021/12/21 06:15:49;;;;;;;6.37;2.10;;;;;;;-0.90;100.00;60714.25;5073730;28;20431;-76
2021/12/21 06:26:59;;;;;;;5.53;3.13;;;;;;;0.59;100.00;60873.53;5029439;28;21028;-75
2021/12/21 06:29:27;;;;;;;4.97;2.17;;;;;;;1.37;100.00;60950.19;5033077;28;20825;-74
2021/12/21 06:31:55;;;;;;;3.07;1.97;;;;;;;1.90;100.00;61008.41;5051313;28;20452;-74
2021/12/21 06:34:22;;;;;;;3.00;2.17;;;;;;;2.67;100.00;61089.66;5052220;28;20516;-75
2021/12/21 06:36:51;;;;;;;3.50;2.30;;;;;;;1.65;100.00;60984.94;5052678;28;20459;-77
2021/12/21 06:39:18;;;;;;;4.87;2.30;;;;;;;3.31;100.00;61160.19;5052724;28;20454;-77
2021/12/21 06:41:50;;;;;;;6.53;2.00;;;;;;;3.08;100.00;61136.25;5051895;28;20443;-77
2021/12/21 06:44:44;;;;;;;3.33;1.93;;;;;;;2.93;100.00;61115.31;5052064;28;20452;-75
2021/12/21 06:52:44;;;;;;;2.23;1.70;;;;;;;2.25;100.00;61048.63;5060666;28;20426;-78
2021/12/21 06:55:12;;;;;;;2.03;1.83;;;;;;;1.46;100.00;60962.25;5053008;28;20448;-75
2021/12/21 06:57:43;;;;;;;3.77;2.23;;;;;;;3.00;100.00;61127.75;5052763;28;20455;-77
2021/12/21 07:00:17;;;;;;;4.50;2.20;;;;;;;3.46;100.00;61176.16;5053359;28;20885;-74
2021/12/21 07:02:45;;;;;;;6.80;2.40;;;;;;;3.70;100.00;61194.13;5052354;28;21018;-75
2021/12/21 07:05:15;;;;;;;4.33;2.10;;;;;;;3.87;100.00;61217.22;5052331;28;20937;-76
2021/12/21 07:07:49;;;;;;;3.40;2.30;;;;;;;2.74;100.00;61099.63;5052575;28;20517;-75
2021/12/21 07:10:22;;;;;;;2.73;2.23;;;;;;;4.66;100.00;61305.28;5052331;28;20443;-75
2021/12/21 07:18:30;;;;;;;9.70;2.37;;;;;;;2.97;100.00;61127.09;5040696;28;20979;-75
2021/12/21 07:21:00;;;;;;;4.23;2.47;;;;;;;0.54;100.00;60865.75;5071861;28;20556;-76
2021/12/21 07:23:31;;;;;;;4.50;2.23;;;;;;;0.15;100.00;60831.91;5072559;28;20438;-77
2021/12/21 07:25:58;;;;;;;2.70;2.00;;;;;;;0.44;100.00;60859.63;5072289;28;20443;-75
2021/12/21 07:28:25;;;;;;;3.27;2.07;;;;;;;0.43;100.00;60853.53;5071774;28;20497;-73
2021/12/21 07:30:58;;;;;;;10.17;2.77;;;;;;;0.31;100.00;60843.84;5071466;28;21020;-75
2021/12/21 07:33:28;;;;;;;5.80;2.17;;;;;;;-1.36;100.00;60668.09;5072385;28;20426;-75
2021/12/21 07:35:57;;;;;;;2.20;1.50;;;;;;;-0.02;100.00;60808.91;5071462;28;20508;-75
2021/12/21 07:38:30;;;;;;;5.23;2.30;;;;;;;-0.13;100.00;60797.78;5071759;28;21083;-77
2021/12/21 07:40:58;;;;;;;2.90;2.00;;;;;;;-0.04;100.00;60806.78;5070617;28;20441;-74
2021/12/21 07:43:27;;;;;;;3.40;2.00;;;;;;;-1.18;100.00;60682.13;5071585;28;20541;-74
2021/12/21 07:45:56;;;;;;;3.13;2.00;;;;;;;-0.05;100.00;60803.75;5070730;28;20435;-75
2021/12/21 07:48:24;;;;;;;4.93;2.03;;;;;;;-0.05;100.00;60806.25;5071450;28;21084;-75
2021/12/21 07:50:52;;;;;;;2.67;1.70;;;;;;;-2.28;100.00;60560.84;5071550;28;20961;-75
2021/12/21 07:53:20;;;;;;;2.17;1.77;;;;;;;-0.84;100.00;60722.06;5071799;28;20530;-76
2021/12/21 07:55:48;;;;;;;3.10;2.10;;;;;;;0.15;100.00;60831.38;5071714;28;20529;-76
2021/12/21 07:58:16;;;;;;;2.63;1.90;;;;;;;0.10;100.00;60818.56;5071797;28;20450;-73
2021/12/21 08:00:44;;;;;;;3.27;1.90;;;;;;;-1.63;100.00;60639.53;5071785;28;20487;-75
2021/12/21 08:03:17;;;;;;;5.97;2.70;;;;;;;0.03;100.00;60816.69;5071377;28;20952;-75
2021/12/21 08:05:49;;;;;;;3.57;2.30;;;;;;;-0.91;100.00;60720.72;5072124;28;20438;-76
2021/12/21 08:08:22;;;;;;;3.37;2.10;;;;;;;0.39;100.00;60847.31;5071189;28;20482;-75
2021/12/21 08:10:55;;;;;;;3.33;2.10;;;;;;;0.63;100.00;60877.78;5071739;28;20457;-75
2021/12/21 08:13:23;;;;;;;3.73;2.10;;;;;;;0.17;100.00;60824.00;5071580;28;20458;-78
2021/12/21 08:15:50;;;;;;;6.73;4.10;;;;;;;-0.88;100.00;60713.88;5071462;28;20447;-75
2021/12/21 08:18:19;;;;;;;5.00;2.80;;;;;;;0.83;100.00;60898.44;5071474;28;20451;-75
2021/12/21 08:20:57;;;;;;;4.27;2.43;;;;;;;0.61;100.00;60870.66;5070233;28;20542;-75
2021/12/21 08:23:25;;;;;;;3.50;2.20;;;;;;;-0.77;100.00;60730.00;5071056;28;20447;-74
2021/12/21 08:25:56;;;;;;;3.77;2.30;;;;;;;0.27;100.00;60834.59;5071171;28;20482;-78
2021/12/21 08:28:23;;;;;;;8.97;3.03;;;;;;;-0.89;100.00;60722.84;5071176;28;20545;-77
2021/12/21 08:30:50;;;;;;;8.27;5.17;;;;;;;0.78;100.00;60893.69;5071619;28;20540;-77
2021/12/21 08:33:19;;;;;;;7.77;2.73;;;;;;;-0.38;100.00;60773.28;5071516;28;20447;-78
2021/12/21 08:35:47;;;;;;;3.03;1.87;;;;;;;0.95;100.00;60910.66;5071078;28;20979;-74
2021/12/21 08:38:19;;;;;;;2.20;1.90;;;;;;;0.66;100.00;60875.97;5070909;28;20470;-75
2021/12/21 08:40:49;;;;;;;1.50;1.33;;;;;;;0.79;100.00;60892.22;5069228;28;20446;-75
2021/12/21 08:43:19;;;;;;;2.30;1.70;;;;;;;0.80;100.00;60895.28;5050059;28;21049;-73
2021/12/21 08:45:51;;;;;;;4.17;2.37;;;;;;;0.83;100.00;60898.97;5053951;28;20456;-75
2021/12/21 08:48:22;;;;;;;3.63;2.10;;;;;;;0.95;100.00;60908.16;5056345;28;20937;-75
2021/12/21 08:50:53;;;;;;;2.90;2.33;;;;;;;0.92;100.00;60905.50;5054300;28;20465;-77
2021/12/21 08:53:19;;;;;;;1.93;1.70;;;;;;;0.40;100.00;60848.41;5049528;28;20451;-75
2021/12/21 08:55:47;;;;;;;6.50;2.70;;;;;;;0.09;100.00;60815.53;5050700;28;20439;-74
2021/12/21 08:58:15;;;;;;;4.57;2.47;;;;;;;-0.38;100.00;60768.25;5052793;28;20451;-73
2021/12/21 09:00:42;;;;;;;5.40;2.30;;;;;;;0.10;100.00;60814.09;5067460;28;20480;-74
2021/12/21 09:03:10;;;;;;;4.57;2.07;;;;;;;1.35;100.00;60950.56;5075695;28;20495;-73
2021/12/21 09:05:39;;;;;;;2.20;1.90;;;;;;;1.13;100.00;60930.25;5074174;28;21021;-73
2021/12/21 09:08:10;;;;;;;3.00;2.03;;;;;;;1.11;100.00;60928.16;5074773;28;20485;-75
2021/12/21 09:10:39;;;;;;;7.43;1.90;;;;;;;0.98;100.00;60913.81;5074625;28;20478;-74
2021/12/21 09:13:07;;;;;;;2.10;1.80;;;;;;;0.98;100.00;60913.81;5074079;28;20953;-74
2021/12/21 09:15:34;;;;;;;2.93;1.73;;;;;;;1.02;100.00;60916.09;5073251;28;20454;-76
2021/12/21 09:18:02;;;;;;;2.30;1.67;;;;;;;-0.18;100.00;60791.94;5074107;28;20519;-75
2021/12/21 09:20:31;;;;;;;3.07;1.90;;;;;;;1.09;100.00;60925.50;5074409;28;20579;-76
2021/12/21 09:23:00;;;;;;;5.07;1.80;;;;;;;0.69;100.00;60893.63;5074401;28;20580;-75
2021/12/21 09:25:29;;;;;;;3.13;2.07;;;;;;;1.14;100.00;60930.81;5074040;28;21015;-76
2021/12/21 09:27:58;;;;;;;3.00;1.73;;;;;;;1.17;100.00;60934.00;5074155;28;20857;-76
2021/12/21 09:30:27;;;;;;;5.73;1.60;;;;;;;1.38;100.00;60956.25;5074151;28;20603;-74
2021/12/21 09:32:54;;;;;;;4.30;2.30;;;;;;;-0.23;100.00;60794.16;5073853;28;20503;-76
2021/12/21 09:35:23;;;;;;;4.23;1.53;;;;;;;1.38;100.00;60951.78;5073755;28;21014;-75
2021/12/21 09:37:50;;;;;;;2.77;1.73;;;;;;;1.60;100.00;60979.59;5073895;28;20517;-76
2021/12/21 09:40:21;;;;;;;2.43;1.60;;;;;;;1.59;100.00;60978.56;5073759;28;20521;-76
2021/12/21 09:42:52;;;;;;;7.53;1.90;;;;;;;1.73;100.00;60993.41;5072887;28;20447;-75
2021/12/21 09:45:20;;;;;;;5.07;2.20;;;;;;;1.89;100.00;61010.41;5073911;28;20434;-76
2021/12/21 09:47:51;;;;;;;2.43;2.03;;;;;;;1.68;100.00;60988.09;5073587;28;20938;-76
2021/12/21 09:50:26;;;;;;;3.83;1.97;;;;;;;0.42;100.00;60850.50;5072503;28;20442;-77
2021/12/21 09:52:54;;;;;;;3.90;2.13;;;;;;;1.16;100.00;60935.44;5073786;28;20544;-73
2021/12/21 09:55:25;;;;;;;4.40;2.77;;;;;;;-0.21;100.00;60788.75;5073496;28;20447;-75
2021/12/21 09:57:54;;;;;;;2.23;1.60;;;;;;;0.96;100.00;60909.75;5072772;28;20443;-74
2021/12/21 10:00:27;;;;;;;2.10;1.53;;;;;;;1.11;100.00;60922.63;5073702;28;20837;-74
2021/12/21 10:03:04;;;;;;;3.07;2.17;;;;;;;1.29;100.00;60951.75;5073542;28;20500;-73
2021/12/21 10:05:33;;;;;;;2.93;1.60;;;;;;;-0.03;100.00;60808.38;5073503;28;20795;-76
2021/12/21 10:08:03;;;;;;;2.13;1.40;;;;;;;1.01;100.00;60917.03;5073000;28;20973;-76
2021/12/21 10:10:45;;;;;;;2.70;1.80;;;;;;;1.24;100.00;60941.41;5072284;28;20965;-75
2021/12/21 10:13:18;;;;;;;3.60;1.90;;;;;;;1.07;100.00;60923.38;5073307;28;20945;-75
2021/12/21 10:15:46;;;;;;;1.73;1.60;;;;;;;1.59;100.00;60974.06;5073480;28;20467;-74
2021/12/21 10:18:14;;;;;;;4.53;2.07;;;;;;;0.30;100.00;60837.78;5073210;28;20492;-76
2021/12/21 10:20:48;;;;;;;3.37;1.80;;;;;;;1.74;100.00;60989.44;5072877;28;20808;-74
2021/12/21 10:23:20;;;;;;;3.00;1.87;;;;;;;1.64;100.00;60983.84;5073143;28;20500;-75
2021/12/21 10:25:57;;;;;;;3.63;2.27;;;;;;;1.76;100.00;60996.59;5072965;28;20808;-74
2021/12/21 10:28:33;;;;;;;2.93;1.67;;;;;;;1.74;100.00;60991.97;5072727;28;20478;-75
2021/12/21 10:31:04;;;;;;;2.90;1.90;;;;;;;1.55;100.00;60971.81;5072279;28;21011;-74
2021/12/21 10:33:32;;;;;;;3.90;1.70;;;;;;;1.30;100.00;60945.25;5072390;28;21018;-74
2021/12/21 10:36:02;;;;;;;3.10;1.87;;;;;;;1.41;100.00;60956.94;5072783;28;20488;-75
2021/12/21 10:38:33;;;;;;;1.53;1.30;;;;;;;1.70;100.00;60990.75;5072609;28;20462;-75
2021/12/21 10:41:07;;;;;;;6.80;1.90;;;;;;;2.18;100.00;61041.19;5072570;28;20431;-74
2021/12/21 10:43:36;;;;;;;4.13;2.30;;;;;;;2.89;100.00;61113.03;5072645;28;20442;-74
2021/12/21 10:46:04;;;;;;;2.67;1.93;;;;;;;1.56;100.00;60975.38;5072663;28;20471;-77
2021/12/21 10:48:35;;;;;;;2.87;2.27;;;;;;;2.58;100.00;61088.69;5072114;28;20482;-75
2021/12/21 10:51:03;;;;;;;2.57;1.83;;;;;;;2.63;100.00;61087.91;5073152;28;20537;-75
2021/12/21 10:53:31;;;;;;;3.43;2.20;;;;;;;3.30;100.00;61159.13;5072328;28;20439;-76
2021/12/21 10:56:06;;;;;;;5.93;1.80;;;;;;;3.25;100.00;61153.81;5072117;28;20794;-75
2021/12/21 10:58:39;;;;;;;2.50;1.83;;;;;;;3.94;100.00;61221.63;5072616;28;20893;-75
2021/12/21 11:01:13;;;;;;;4.87;2.90;;;;;;;3.73;100.00;61204.84;5072243;28;20434;-76
2021/12/21 11:03:49;;;;;;;4.70;2.70;;;;;;;3.06;100.00;61128.59;5072562;28;20823;-74
2021/12/21 11:06:19;;;;;;;4.17;2.70;;;;;;;3.99;100.00;61229.47;5070840;28;20988;-76
2021/12/21 11:08:48;;;;;;;4.93;2.50;;;;;;;4.63;100.00;61299.59;5071990;28;20489;-77
2021/12/21 11:11:28;;;;;;;5.90;2.20;;;;;;;4.21;100.00;61258.44;5078709;28;20492;-75
2021/12/21 11:14:02;;;;;;;3.73;2.70;;;;;;;3.33;100.00;61157.28;5072081;28;20448;-74
2021/12/21 11:16:37;;;;;;;4.93;2.67;;;;;;;2.54;100.00;61079.41;5071893;28;20446;-76
2021/12/21 11:19:05;;;;;;;3.17;2.10;;;;;;;1.82;100.00;61002.41;5071909;28;20530;-75
2021/12/21 11:21:33;;;;;;;2.30;1.40;;;;;;;4.21;100.00;61253.41;5070723;28;20516;-75
2021/12/21 11:24:04;;;;;;;5.00;2.17;;;;;;;4.90;100.00;61328.31;5071584;28;20454;-77
2021/12/21 11:26:57;;;;;;;3.33;2.10;;;;;;;4.77;100.00;61314.50;5070532;28;20481;-77
2021/12/21 11:29:26;;;;;;;4.10;1.93;;;;;;;3.74;100.00;61205.94;5070293;28;21027;-74
2021/12/21 11:31:55;;;;;;;2.17;1.70;;;;;;;5.86;100.00;61425.59;5071503;28;20494;-75
2021/12/21 11:34:24;;;;;;;3.83;1.87;;;;;;;6.61;100.00;61502.50;5071562;28;20477;-73
2021/12/21 11:39:41;;;;;;;4.30;1.70;;;;;;;5.19;100.00;61359.22;5071833;28;20501;-73
2021/12/21 11:42:25;;;;;;;4.17;2.33;;;;;;;5.85;100.00;61426.53;5071524;28;20589;-74
2021/12/21 11:44:58;;;;;;;3.47;2.13;;;;;;;6.44;100.00;61488.91;5071989;28;20461;-74
2021/12/21 11:47:39;;;;;;;3.23;2.30;;;;;;;6.96;100.00;61541.88;5071975;28;20504;-78
2021/12/21 11:50:11;;;;;;;2.20;1.70;;;;;;;6.22;100.00;61465.44;5072197;28;20481;-75
2021/12/21 11:52:47;;;;;;;2.20;1.43;;;;;;;7.63;100.00;61618.44;5072937;28;20438;-75
2021/12/21 11:55:15;;;;;;;5.80;1.97;;;;;;;7.88;100.00;61639.56;5072161;28;20500;-75
2021/12/21 11:57:50;;;;;;;5.80;1.80;;;;;;;8.77;100.00;61739.25;5071963;28;20434;-76
2021/12/21 12:00:20;;;;;;;5.43;2.03;;;;;;;9.10;100.00;61777.06;5071602;28;20517;-75
2021/12/21 12:02:49;;;;;;;3.67;2.33;;;;;;;10.58;100.00;61926.81;5071484;28;20530;-79
2021/12/21 12:05:20;;;;;;;3.53;2.37;;;;;;;10.02;100.00;61866.84;5072420;28;20442;-74
2021/12/21 12:08:01;;;;;;;6.10;2.80;;;;;;;7.76;100.00;61631.28;5070542;28;20450;-76
2021/12/21 12:10:28;;;;;;;3.00;2.20;;;;;;;7.59;100.00;61611.66;5071242;28;20511;-75
2021/12/21 12:13:18;;;;;;;2.83;2.10;;;;;;;7.36;100.00;61582.03;5071302;28;20449;-74
2021/12/21 12:15:47;;;;;;;5.33;2.40;;;;;;;7.91;100.00;61644.78;5071419;28;20858;-76
2021/12/21 12:18:22;;;;;;;4.60;2.30;;;;;;;8.45;100.00;61700.47;5071355;28;20807;-75
2021/12/21 12:20:54;;;;;;;4.33;2.87;;;;;;;9.72;100.00;61837.25;5071420;28;20531;-74
2021/12/21 12:23:24;;;;;;;4.83;2.20;;;;;;;7.24;100.00;61573.75;5071796;28;20503;-74
2021/12/21 12:25:57;;;;;;;4.60;2.67;;;;;;;5.97;100.00;61437.31;5072432;28;20856;-74
2021/12/21 12:28:35;;;;;;;4.77;2.27;;;;;;;4.50;100.00;61283.22;5071255;28;20446;-73
2021/12/21 12:31:03;;;;;;;2.90;2.30;;;;;;;3.74;100.00;61208.44;5070957;28;20502;-74
2021/12/21 12:33:38;;;;;;;7.33;2.43;;;;;;;2.29;100.00;61037.25;5074403;28;20503;-76